createdAt,value
2023-12-22T00:00:16.652Z,4.90
2023-12-22T00:03:07.551Z,4.82
2023-12-22T00:05:57.765Z,4.80
2023-12-22T00:08:50.501Z,4.79
2023-12-22T00:11:40.677Z,4.63
2023-12-22T00:14:30.779Z,4.46
2023-12-22T00:17:20.923Z,4.45
2023-12-22T00:20:14.912Z,4.46
2023-12-22T00:23:05.181Z,4.49
2023-12-22T00:25:57.915Z,4.56
2023-12-22T00:28:48.197Z,4.55
2023-12-22T00:31:38.346Z,4.67
2023-12-22T00:34:28.530Z,4.77
2023-12-22T00:37:18.691Z,4.84
2023-12-22T00:40:10.722Z,4.85
2023-12-22T00:43:03.425Z,4.97
2023-12-22T00:45:53.495Z,4.93
2023-12-22T00:48:43.665Z,4.95
2023-12-22T00:51:33.792Z,4.95
2023-12-22T00:54:24.062Z,4.89
2023-12-22T00:57:14.614Z,4.91
2023-12-22T01:00:11.735Z,4.88
2023-12-22T01:03:01.907Z,4.81
2023-12-22T01:05:52.425Z,4.60
2023-12-22T01:08:42.708Z,4.22
2023-12-22T01:11:32.804Z,4.04
2023-12-22T01:14:22.955Z,4.00
2023-12-22T01:17:15.689Z,4.03
2023-12-22T01:20:06.001Z,4.06
2023-12-22T01:22:56.157Z,4.18
2023-12-22T01:25:46.276Z,4.22
2023-12-22T01:28:37.544Z,4.28
2023-12-22T01:31:27.742Z,4.34
2023-12-22T01:34:20.424Z,4.33
2023-12-22T01:37:10.551Z,4.32
2023-12-22T01:40:00.620Z,4.36
2023-12-22T01:42:50.712Z,4.41
2023-12-22T01:45:44.818Z,4.40
2023-12-22T01:48:35.491Z,4.39
2023-12-22T01:51:28.359Z,4.41
2023-12-22T01:54:19.624Z,4.37
2023-12-22T01:57:10.321Z,4.46
2023-12-22T02:00:00.901Z,4.49
2023-12-22T02:02:51.609Z,4.54
2023-12-22T02:05:42.045Z,4.59
2023-12-22T02:08:36.955Z,4.58
2023-12-22T02:11:27.124Z,4.56
2023-12-22T02:14:17.234Z,4.46
2023-12-22T02:17:23.430Z,4.41
2023-12-22T02:20:14.191Z,4.43
2023-12-22T02:23:07.030Z,4.47
2023-12-22T02:26:08.708Z,4.47
2023-12-22T02:29:01.747Z,4.51
2023-12-22T02:31:56.770Z,4.54
2023-12-22T02:34:50.364Z,4.48
2023-12-22T02:37:43.420Z,4.11
2023-12-22T02:40:38.201Z,4.11
2023-12-22T02:43:28.617Z,4.14
2023-12-22T02:46:19.646Z,4.31
2023-12-22T02:49:09.802Z,4.23
2023-12-22T02:51:59.937Z,4.42
2023-12-22T02:54:50.389Z,4.44
2023-12-22T02:57:43.037Z,4.45
2023-12-22T03:00:33.186Z,4.49
2023-12-22T03:03:23.304Z,4.44
2023-12-22T03:06:13.448Z,4.45
2023-12-22T03:09:03.903Z,4.40
2023-12-22T03:11:55.907Z,4.43
2023-12-22T03:14:48.642Z,4.44
2023-12-22T03:17:38.797Z,4.44
2023-12-22T03:20:28.897Z,4.39
2023-12-22T03:23:18.959Z,4.37
2023-12-22T03:26:09.048Z,4.30
2023-12-22T03:28:59.229Z,4.23
2023-12-22T03:31:52.050Z,4.18
2023-12-22T03:34:42.842Z,4.11
2023-12-22T03:37:33.057Z,4.16
2023-12-22T03:40:23.227Z,4.07
2023-12-22T03:43:13.406Z,4.18
2023-12-22T03:46:04.279Z,4.34
2023-12-22T03:48:57.259Z,4.33
2023-12-22T03:51:47.489Z,4.38
2023-12-22T03:54:37.590Z,4.26
2023-12-22T03:57:27.693Z,4.26
2023-12-22T04:00:18.996Z,4.29
2023-12-22T04:03:09.119Z,4.25
2023-12-22T04:06:01.921Z,4.30
2023-12-22T04:08:52.117Z,4.31
2023-12-22T04:11:42.796Z,4.30
2023-12-22T04:14:32.889Z,4.35
2023-12-22T04:17:23.005Z,4.35
2023-12-22T04:20:13.842Z,4.36
2023-12-22T04:23:07.012Z,4.46
2023-12-22T04:25:57.301Z,4.49
2023-12-22T04:28:47.494Z,4.47
2023-12-22T04:31:37.727Z,4.34
2023-12-22T04:34:27.859Z,4.54
2023-12-22T04:37:18.182Z,4.49
2023-12-22T04:40:12.099Z,4.49
2023-12-22T04:43:02.174Z,4.47
2023-12-22T04:45:52.235Z,4.48
2023-12-22T04:48:42.500Z,4.49
2023-12-22T04:51:32.667Z,4.55
2023-12-22T04:54:22.731Z,4.56
2023-12-22T04:57:17.431Z,4.16
2023-12-22T05:00:10.615Z,4.26
2023-12-22T05:03:00.807Z,4.34
2023-12-22T05:05:50.926Z,4.44
2023-12-22T05:08:41.074Z,4.58
2023-12-22T05:11:31.425Z,4.52
2023-12-22T05:14:24.126Z,4.59
2023-12-22T05:17:14.217Z,4.41
2023-12-22T05:20:04.501Z,4.37
2023-12-22T05:22:54.905Z,4.34
2023-12-22T05:25:45.067Z,4.39
2023-12-22T05:28:36.430Z,4.35
2023-12-22T05:31:29.165Z,4.35
2023-12-22T05:34:19.386Z,4.34
2023-12-22T05:37:09.562Z,4.24
2023-12-22T05:39:59.863Z,4.28
2023-12-22T05:42:50.043Z,4.21
2023-12-22T05:45:40.103Z,4.36
2023-12-22T05:48:32.865Z,4.46
2023-12-22T05:51:22.992Z,4.39
2023-12-22T05:54:13.683Z,4.30
2023-12-22T05:57:06.298Z,4.44
2023-12-22T05:59:56.515Z,4.34
2023-12-22T06:02:46.635Z,4.58
2023-12-22T06:05:40.117Z,4.66
2023-12-22T06:08:30.583Z,4.71
2023-12-22T06:11:20.716Z,4.70
2023-12-22T06:14:10.801Z,4.73
2023-12-22T06:17:01.146Z,4.51
2023-12-22T06:19:51.331Z,4.23
2023-12-22T06:22:44.100Z,4.08
2023-12-22T06:25:34.722Z,4.14
2023-12-22T06:28:24.946Z,3.99
2023-12-22T06:31:22.772Z,4.18
2023-12-22T06:34:13.113Z,4.31
2023-12-22T06:37:03.271Z,4.42
2023-12-22T06:39:55.979Z,4.61
2023-12-22T06:42:46.072Z,4.59
2023-12-22T06:45:36.138Z,4.56
2023-12-22T06:48:27.754Z,4.63
2023-12-22T06:51:22.416Z,4.63
2023-12-22T06:54:14.496Z,4.58
2023-12-22T06:57:09.334Z,4.57
2023-12-22T06:59:59.416Z,4.66
2023-12-22T07:02:49.665Z,4.66
2023-12-22T07:05:40.163Z,4.72
2023-12-22T07:08:30.388Z,4.58
2023-12-22T07:11:25.779Z,4.60
2023-12-22T07:14:22.665Z,4.19
2023-12-22T07:17:13.501Z,3.76
2023-12-22T07:20:04.523Z,3.35
2023-12-22T07:22:56.095Z,3.24
2023-12-22T07:25:47.088Z,3.30
2023-12-22T07:28:37.436Z,3.37
2023-12-22T07:31:30.188Z,3.50
2023-12-22T07:34:22.925Z,3.54
2023-12-22T07:37:13.101Z,3.51
2023-12-22T07:40:04.424Z,3.56
2023-12-22T07:42:54.619Z,3.47
2023-12-22T07:45:44.855Z,3.37
2023-12-22T07:48:37.807Z,3.49
2023-12-22T07:51:28.145Z,3.43
2023-12-22T07:54:18.499Z,3.41
2023-12-22T07:57:09.203Z,2.97
2023-12-22T07:59:59.287Z,2.54
2023-12-22T08:02:49.403Z,2.23
2023-12-22T08:05:42.108Z,2.07
2023-12-22T08:08:32.327Z,2.08
2023-12-22T08:11:25.364Z,2.09
2023-12-22T08:14:15.590Z,2.01
2023-12-22T08:17:05.749Z,1.60
2023-12-22T08:19:56.327Z,1.42
2023-12-22T08:22:52.037Z,1.33
2023-12-22T08:25:45.540Z,1.30
2023-12-22T08:28:36.513Z,1.27
2023-12-22T08:31:26.674Z,1.25
2023-12-22T08:34:16.814Z,1.30
2023-12-22T08:37:07.080Z,1.30
2023-12-22T08:39:59.988Z,1.43
2023-12-22T08:42:50.774Z,1.63
2023-12-22T08:45:40.941Z,1.76
2023-12-22T08:48:31.080Z,1.73
2023-12-22T08:51:21.231Z,1.74
2023-12-22T08:54:11.331Z,1.80
2023-12-22T08:57:04.015Z,2.06
2023-12-22T08:59:54.226Z,2.06
2023-12-22T09:02:45.046Z,2.07
2023-12-22T09:05:35.444Z,2.09
2023-12-22T09:08:26.141Z,2.38
2023-12-22T09:11:18.548Z,2.59
2023-12-22T09:14:11.873Z,2.92
2023-12-22T09:17:02.067Z,3.28
2023-12-22T09:19:52.197Z,3.48
2023-12-22T09:22:42.827Z,3.82
2023-12-22T09:25:32.974Z,4.28
2023-12-22T09:28:23.141Z,4.60
2023-12-22T09:31:16.519Z,4.69
2023-12-22T09:34:06.951Z,4.74
2023-12-22T09:36:57.162Z,4.79
2023-12-22T09:39:47.666Z,4.89
2023-12-22T09:42:37.996Z,4.81
2023-12-22T09:45:28.443Z,4.14
2023-12-22T09:48:28.216Z,4.20
2023-12-22T09:51:21.605Z,4.47
2023-12-22T09:54:13.498Z,4.62
2023-12-22T09:57:14.675Z,4.69
2023-12-22T10:00:14.055Z,4.81
2023-12-22T10:03:04.712Z,4.96
2023-12-22T10:05:57.769Z,5.20
2023-12-22T10:08:52.790Z,5.34
2023-12-22T10:11:44.773Z,5.44
2023-12-22T10:14:40.131Z,5.44
2023-12-22T10:17:31.462Z,5.57
2023-12-22T10:20:21.765Z,5.38
2023-12-22T10:23:14.623Z,5.46
2023-12-22T10:26:05.196Z,5.42
2023-12-22T10:28:55.465Z,5.51
2023-12-22T10:31:45.699Z,5.36
2023-12-22T10:34:36.191Z,5.43
2023-12-22T10:37:26.727Z,5.49
2023-12-22T10:40:21.069Z,5.39
2023-12-22T10:43:12.372Z,5.32
2023-12-22T10:46:03.349Z,5.32
2023-12-22T10:48:56.918Z,5.32
2023-12-22T10:51:47.055Z,5.21
2023-12-22T10:54:39.827Z,5.25
2023-12-22T10:57:39.178Z,5.24
2023-12-22T11:00:32.202Z,5.23
2023-12-22T11:03:27.937Z,5.26
2023-12-22T11:06:20.424Z,5.30
2023-12-22T11:09:11.892Z,5.30
2023-12-22T11:12:04.686Z,5.41
2023-12-22T11:14:58.085Z,5.32
2023-12-22T11:17:50.703Z,5.31
2023-12-22T11:20:42.228Z,5.28
2023-12-22T11:23:35.479Z,5.30
2023-12-22T11:26:26.849Z,5.39
2023-12-22T11:29:20.710Z,5.42
2023-12-22T11:32:17.321Z,5.37
2023-12-22T11:35:09.484Z,5.31
2023-12-22T11:38:03.532Z,5.43
2023-12-22T11:40:56.800Z,5.46
2023-12-22T11:43:48.291Z,5.56
2023-12-22T11:46:38.758Z,5.57
2023-12-22T11:49:38.866Z,5.66
2023-12-22T11:52:31.187Z,5.64
2023-12-22T11:55:21.407Z,5.71
2023-12-22T11:58:39.560Z,5.80
2023-12-22T12:01:33.551Z,5.94
2023-12-22T12:04:25.336Z,6.02
2023-12-22T12:07:49.262Z,5.94
2023-12-22T12:10:56.480Z,5.96
2023-12-22T12:13:48.732Z,5.94
2023-12-22T12:16:42.179Z,5.85
2023-12-22T12:19:32.489Z,5.87
2023-12-22T12:22:26.327Z,5.84
2023-12-22T12:25:26.116Z,5.71
2023-12-22T12:28:20.301Z,5.45
2023-12-22T12:31:12.281Z,6.01
2023-12-22T12:34:04.509Z,6.23
2023-12-22T12:36:56.558Z,6.25
2023-12-22T12:39:47.672Z,6.23
2023-12-22T12:42:41.535Z,6.07
2023-12-22T12:45:31.882Z,6.07
2023-12-22T12:48:22.142Z,5.99
2023-12-22T12:51:12.979Z,6.10
2023-12-22T12:54:03.810Z,6.25
2023-12-22T12:56:54.393Z,6.34
2023-12-22T12:59:48.862Z,6.27
2023-12-22T13:02:39.774Z,6.37
2023-12-22T13:05:30.076Z,6.25
2023-12-22T13:08:22.993Z,6.24
2023-12-22T13:11:15.662Z,6.22
2023-12-22T13:14:07.934Z,6.41
2023-12-22T13:17:02.057Z,6.31
2023-12-22T13:19:52.554Z,6.19
2023-12-22T13:22:43.187Z,6.30
2023-12-22T13:25:42.294Z,6.33
2023-12-22T13:28:33.129Z,6.36
2023-12-22T13:31:23.262Z,6.40
2023-12-22T13:34:17.490Z,6.46
2023-12-22T13:37:09.319Z,6.41
2023-12-22T13:39:59.629Z,6.38
2023-12-22T13:42:58.690Z,6.36
2023-12-22T13:45:54.546Z,6.35
2023-12-22T13:48:44.943Z,6.34
2023-12-22T13:51:45.485Z,6.39
2023-12-22T13:54:36.436Z,6.45
2023-12-22T13:57:27.415Z,6.53
2023-12-22T14:00:35.843Z,6.40
2023-12-22T14:03:26.332Z,6.37
2023-12-22T14:06:17.628Z,6.31
2023-12-22T14:09:10.670Z,6.44
2023-12-22T14:12:05.338Z,6.40
2023-12-22T14:14:57.018Z,6.68
2023-12-22T14:17:48.077Z,6.46
2023-12-22T14:20:38.493Z,6.40
2023-12-22T14:23:28.703Z,6.28
2023-12-22T14:26:21.788Z,6.29
2023-12-22T14:29:12.356Z,6.26
2023-12-22T14:32:02.860Z,6.30
2023-12-22T14:34:53.567Z,6.23
2023-12-22T14:37:44.445Z,6.23
2023-12-22T14:40:34.822Z,6.28
2023-12-22T14:43:27.892Z,6.25
2023-12-22T14:46:18.066Z,6.31
2023-12-22T14:49:08.389Z,6.38
2023-12-22T14:52:00.158Z,6.22
2023-12-22T14:54:50.231Z,6.23
2023-12-22T14:57:40.697Z,6.23
2023-12-22T15:00:33.944Z,6.24
2023-12-22T15:03:24.229Z,6.21
2023-12-22T15:06:15.006Z,6.25
2023-12-22T15:09:05.683Z,6.25
2023-12-22T15:11:57.009Z,6.29
2023-12-22T15:14:47.980Z,6.33
2023-12-22T15:17:40.735Z,6.25
2023-12-22T15:20:31.056Z,6.20
2023-12-22T15:23:21.416Z,6.37
2023-12-22T15:26:11.479Z,6.33
2023-12-22T15:29:01.670Z,6.12
2023-12-22T15:31:58.018Z,6.21
2023-12-22T15:34:51.031Z,6.07
2023-12-22T15:37:42.694Z,6.13
2023-12-22T15:40:33.333Z,6.13
2023-12-22T15:43:23.445Z,6.15
2023-12-22T15:46:13.726Z,6.13
2023-12-22T15:49:04.009Z,6.12
2023-12-22T15:51:57.248Z,6.18
2023-12-22T15:54:47.426Z,6.20
2023-12-22T15:57:37.577Z,6.13
2023-12-22T16:00:28.809Z,6.25
2023-12-22T16:03:18.954Z,6.07
2023-12-22T16:06:10.001Z,5.94
2023-12-22T16:09:02.770Z,5.73
2023-12-22T16:11:53.680Z,5.47
2023-12-22T16:14:43.799Z,5.45
2023-12-22T16:17:33.959Z,5.43
2023-12-22T16:20:24.234Z,5.47
2023-12-22T16:23:14.494Z,5.43
2023-12-22T16:26:09.568Z,5.38
2023-12-22T16:28:59.794Z,5.33
2023-12-22T16:31:49.998Z,5.29
2023-12-22T16:34:40.449Z,5.21
2023-12-22T16:37:30.656Z,5.13
2023-12-22T16:40:21.007Z,5.06
2023-12-22T16:43:14.732Z,3.23
2023-12-22T16:46:05.197Z,2.67
2023-12-22T16:48:55.337Z,2.44
2023-12-22T16:51:45.560Z,2.32
2023-12-22T16:54:35.671Z,2.21
2023-12-22T16:57:25.822Z,2.34
2023-12-22T17:00:21.279Z,2.40
2023-12-22T17:03:11.609Z,2.44
2023-12-22T17:06:02.642Z,2.54
2023-12-22T17:08:53.604Z,2.58
2023-12-22T17:11:44.250Z,2.50
2023-12-22T17:14:34.451Z,2.55
2023-12-22T17:17:28.289Z,2.50
2023-12-22T17:20:19.093Z,2.57
2023-12-22T17:23:09.439Z,2.67
2023-12-22T17:25:59.927Z,2.56
2023-12-22T17:28:50.536Z,2.76
2023-12-22T17:31:41.000Z,2.79
2023-12-22T17:34:33.698Z,2.89
2023-12-22T17:37:23.817Z,2.70
2023-12-22T17:40:14.416Z,2.94
2023-12-22T17:43:04.498Z,2.76
2023-12-22T17:45:56.129Z,2.78
2023-12-22T17:48:46.305Z,2.75
2023-12-22T17:51:39.046Z,2.79
2023-12-22T17:54:29.138Z,2.74
2023-12-22T17:57:19.268Z,2.72
2023-12-22T18:00:11.274Z,2.99
2023-12-22T18:03:01.348Z,3.16
2023-12-22T18:05:51.819Z,2.99
2023-12-22T18:08:44.529Z,3.11
2023-12-22T18:11:35.084Z,3.11
2023-12-22T18:14:25.262Z,3.09
2023-12-22T18:17:15.391Z,3.02
2023-12-22T18:20:05.642Z,3.16
2023-12-22T18:22:55.876Z,3.08
2023-12-22T18:25:48.556Z,3.33
2023-12-22T18:28:38.660Z,3.04
2023-12-22T18:31:29.008Z,3.10
2023-12-22T18:34:19.167Z,2.96
2023-12-22T18:37:09.305Z,3.20
2023-12-22T18:39:59.546Z,3.14
2023-12-22T18:42:52.294Z,3.10
2023-12-22T18:45:42.942Z,3.08
2023-12-22T18:48:33.202Z,3.03
2023-12-22T18:51:24.722Z,3.11
2023-12-22T18:54:14.857Z,3.26
2023-12-22T18:57:04.961Z,3.27
2023-12-22T18:59:58.305Z,3.32
2023-12-22T19:02:56.491Z,3.47
2023-12-22T19:05:49.653Z,3.53
2023-12-22T19:08:40.006Z,3.58
2023-12-22T19:11:30.087Z,3.96
2023-12-22T19:14:20.252Z,4.09
2023-12-22T19:17:13.356Z,4.13
2023-12-22T19:20:03.586Z,4.23
2023-12-22T19:22:53.815Z,4.14
2023-12-22T19:25:44.019Z,3.93
2023-12-22T19:28:34.143Z,3.88
2023-12-22T19:31:29.705Z,3.75
2023-12-22T19:34:23.072Z,3.77
2023-12-22T19:37:15.601Z,3.79
2023-12-22T19:40:07.249Z,3.88
2023-12-22T19:42:57.494Z,3.86
2023-12-22T19:45:48.293Z,3.92
2023-12-22T19:48:38.443Z,3.92
2023-12-22T19:51:31.294Z,4.01
2023-12-22T19:54:21.495Z,4.02
2023-12-22T19:57:11.652Z,4.00
2023-12-22T20:00:01.906Z,4.03
2023-12-22T20:03:02.538Z,4.04
2023-12-22T20:05:52.705Z,4.11
2023-12-22T20:08:47.730Z,4.05
2023-12-22T20:11:38.186Z,3.96
2023-12-22T20:14:28.553Z,4.01
2023-12-22T20:17:18.669Z,4.09
2023-12-22T20:20:10.613Z,3.96
2023-12-22T20:23:01.238Z,3.97
2023-12-22T20:25:53.960Z,4.13
2023-12-22T20:28:44.081Z,4.04
2023-12-22T20:31:35.352Z,4.19
2023-12-22T20:34:25.499Z,4.15
2023-12-22T20:37:15.731Z,4.26
2023-12-22T20:40:06.018Z,4.22
2023-12-22T20:42:58.694Z,4.29
2023-12-22T20:45:50.421Z,4.34
2023-12-22T20:48:42.331Z,4.42
2023-12-22T20:51:33.649Z,4.62
2023-12-22T20:54:23.852Z,4.62
2023-12-22T20:57:14.258Z,4.61
2023-12-22T21:00:09.277Z,4.69
2023-12-22T21:02:59.729Z,4.81
2023-12-22T21:05:50.598Z,4.69
2023-12-22T21:08:41.313Z,4.71
2023-12-22T21:11:31.425Z,4.74
2023-12-22T21:14:21.517Z,4.69
2023-12-22T21:17:14.274Z,4.73
2023-12-22T21:20:08.301Z,4.74
2023-12-22T21:22:58.966Z,4.76
2023-12-22T21:25:49.163Z,4.84
2023-12-22T21:28:42.187Z,4.82
2023-12-22T21:31:32.399Z,4.97
2023-12-22T21:34:25.260Z,4.87
2023-12-22T21:37:15.451Z,4.85
2023-12-22T21:40:06.125Z,4.92
2023-12-22T21:42:57.069Z,4.88
2023-12-22T21:45:47.206Z,4.92
2023-12-22T21:48:37.361Z,4.87
2023-12-22T21:51:30.062Z,4.97
2023-12-22T21:54:20.155Z,5.01
2023-12-22T21:57:11.551Z,5.07
2023-12-22T22:00:01.881Z,5.18
2023-12-22T22:02:52.403Z,5.23
2023-12-22T22:05:43.083Z,5.09
2023-12-22T22:08:36.368Z,5.22
2023-12-22T22:11:26.505Z,5.16
2023-12-22T22:14:26.091Z,5.23
2023-12-22T22:17:20.136Z,5.06
2023-12-22T22:20:12.763Z,4.79
2023-12-22T22:23:02.932Z,4.52
2023-12-22T22:25:55.616Z,4.39
2023-12-22T22:28:46.068Z,4.52
2023-12-22T22:31:36.202Z,4.51
2023-12-22T22:34:26.314Z,4.51
2023-12-22T22:37:16.584Z,4.52
2023-12-22T22:40:07.150Z,4.59
2023-12-22T22:42:59.894Z,4.36
2023-12-22T22:45:49.978Z,4.23
2023-12-22T22:48:40.260Z,3.94
2023-12-22T22:51:30.839Z,3.93
2023-12-22T22:54:21.016Z,3.94
2023-12-22T22:57:11.213Z,4.02
2023-12-22T23:00:05.865Z,3.93
2023-12-22T23:02:55.987Z,3.95
2023-12-22T23:05:47.644Z,4.02
2023-12-22T23:08:37.993Z,4.14
2023-12-22T23:11:28.137Z,4.21
2023-12-22T23:14:18.355Z,4.24
2023-12-22T23:17:11.223Z,4.16
2023-12-22T23:20:01.544Z,4.11
2023-12-22T23:22:52.232Z,4.10
2023-12-22T23:25:42.446Z,4.28
2023-12-22T23:28:32.937Z,4.26
2023-12-22T23:31:23.316Z,4.25
2023-12-22T23:34:17.189Z,4.31
2023-12-22T23:37:08.348Z,4.26
2023-12-22T23:39:58.484Z,4.30
2023-12-22T23:42:48.599Z,4.25
2023-12-22T23:45:38.677Z,4.28
2023-12-22T23:48:29.066Z,4.35
2023-12-22T23:51:21.959Z,4.30
2023-12-22T23:54:12.068Z,4.36
2023-12-22T23:57:02.300Z,4.34
2023-12-22T23:59:52.650Z,4.36
